createdAt,value
2023-05-23T00:01:48.058Z,8.77
2023-05-23T00:04:17.288Z,9.85
2023-05-23T00:06:46.986Z,7.45
2023-05-23T00:09:14.614Z,8.98
2023-05-23T00:11:45.170Z,8.80
2023-05-23T00:14:15.560Z,8.95
2023-05-23T00:16:44.183Z,8.40
2023-05-23T00:19:11.585Z,6.28
2023-05-23T00:21:38.344Z,7.00
2023-05-23T00:24:04.953Z,8.80
2023-05-23T00:26:32.216Z,9.88
2023-05-23T00:28:59.180Z,8.93
2023-05-23T00:31:25.778Z,6.38
2023-05-23T00:33:52.270Z,9.27
2023-05-23T00:36:19.139Z,9.00
2023-05-23T00:38:49.430Z,9.35
2023-05-23T00:43:42.720Z,6.72
2023-05-23T00:46:10.945Z,9.00
2023-05-23T00:48:38.827Z,8.27
2023-05-23T00:51:05.811Z,8.95
2023-05-23T00:53:33.498Z,7.93
2023-05-23T00:56:00.138Z,9.00
2023-05-23T00:58:26.768Z,9.25
2023-05-23T01:00:54.512Z,10.90
2023-05-23T01:03:21.290Z,7.95
2023-05-23T01:05:47.954Z,9.48
2023-05-23T01:08:15.809Z,7.78
2023-05-23T01:10:42.680Z,7.57
2023-05-23T01:13:30.970Z,6.97
2023-05-23T01:16:28.272Z,5.22
2023-05-23T01:19:20.695Z,5.25
2023-05-23T01:21:53.020Z,3.60
2023-05-23T01:24:36.320Z,4.45
2023-05-23T01:27:16.838Z,4.22
2023-05-23T01:29:47.096Z,4.38
2023-05-23T01:34:42.472Z,4.22
2023-05-23T01:37:10.782Z,3.70
2023-05-23T01:39:38.345Z,3.60
2023-05-23T01:42:05.748Z,4.13
2023-05-23T01:44:34.940Z,4.13
2023-05-23T01:47:04.151Z,3.95
2023-05-23T01:49:31.955Z,3.75
2023-05-23T01:52:00.882Z,4.57
2023-05-23T01:54:29.359Z,4.20
2023-05-23T01:57:00.678Z,4.75
2023-05-23T01:59:27.217Z,5.15
2023-05-23T02:01:53.742Z,4.82
2023-05-23T02:04:20.256Z,4.90
2023-05-23T02:06:47.475Z,4.50
2023-05-23T02:09:14.283Z,5.10
2023-05-23T02:11:40.799Z,6.50
2023-05-23T02:14:07.517Z,5.28
2023-05-23T02:16:36.527Z,5.80
2023-05-23T02:19:03.601Z,5.60
2023-05-23T02:21:34.200Z,6.07
2023-05-23T02:24:01.747Z,6.05
2023-05-23T02:26:28.256Z,6.55
2023-05-23T02:28:55.071Z,5.63
2023-05-23T02:31:21.643Z,5.68
2023-05-23T02:33:48.249Z,5.68
2023-05-23T02:36:14.707Z,6.38
2023-05-23T02:38:41.261Z,6.47
2023-05-23T02:41:07.758Z,6.07
2023-05-23T02:43:34.286Z,5.75
2023-05-23T02:46:00.927Z,5.13
2023-05-23T02:48:27.419Z,6.00
2023-05-23T02:50:54.204Z,5.35
2023-05-23T02:53:20.812Z,5.85
2023-05-23T02:55:47.309Z,4.78
2023-05-23T02:58:13.796Z,4.72
2023-05-23T03:00:40.299Z,5.38
2023-05-23T03:03:07.012Z,4.45
2023-05-23T03:05:33.514Z,6.75
2023-05-23T03:08:00.311Z,5.90
2023-05-23T03:10:26.815Z,5.10
2023-05-23T03:12:53.288Z,5.70
2023-05-23T03:15:19.913Z,6.25
2023-05-23T03:17:46.437Z,6.20
2023-05-23T03:20:13.021Z,5.80
2023-05-23T03:22:39.528Z,4.30
2023-05-23T03:25:06.614Z,5.97
2023-05-23T03:27:33.125Z,5.68
2023-05-23T03:29:59.568Z,6.25
2023-05-23T03:32:26.044Z,5.72
2023-05-23T03:34:52.714Z,6.32
2023-05-23T03:37:19.161Z,5.22
2023-05-23T03:39:45.714Z,6.30
2023-05-23T03:42:12.145Z,5.22
2023-05-23T03:44:38.650Z,5.80
2023-05-23T03:47:05.311Z,5.88
2023-05-23T03:49:31.800Z,6.45
2023-05-23T03:51:58.249Z,5.38
2023-05-23T03:54:24.691Z,5.30
2023-05-23T03:56:51.135Z,5.43
2023-05-23T03:59:18.836Z,6.05
2023-05-23T04:01:45.415Z,5.95
2023-05-23T04:04:11.902Z,5.07
2023-05-23T04:06:38.515Z,6.68
2023-05-23T04:09:06.218Z,5.70
2023-05-23T04:11:32.701Z,5.93
2023-05-23T04:13:59.122Z,5.95
2023-05-23T04:16:25.895Z,6.35
2023-05-23T04:18:52.489Z,5.82
2023-05-23T04:21:19.045Z,6.20
2023-05-23T04:23:46.091Z,5.70
2023-05-23T04:26:13.085Z,5.57
2023-05-23T04:28:40.059Z,5.72
2023-05-23T04:31:06.678Z,6.00
2023-05-23T04:33:34.256Z,5.10
2023-05-23T04:36:01.535Z,5.72
2023-05-23T04:38:28.015Z,5.05
2023-05-23T04:40:54.610Z,6.45
2023-05-23T04:43:21.905Z,4.85
2023-05-23T04:45:51.221Z,5.68
2023-05-23T04:48:21.602Z,6.53
2023-05-23T04:53:15.471Z,7.18
2023-05-23T04:55:42.177Z,6.35
2023-05-23T04:58:09.777Z,5.63
2023-05-23T05:00:36.306Z,7.32
2023-05-23T05:03:02.850Z,7.35
2023-05-23T05:05:29.422Z,7.72
2023-05-23T05:07:56.012Z,7.70
2023-05-23T05:10:22.570Z,7.80
2023-05-23T05:12:51.852Z,7.15
2023-05-23T05:15:18.771Z,6.25
2023-05-23T05:17:49.974Z,6.63
2023-05-23T05:20:17.410Z,6.88
2023-05-23T05:22:44.571Z,6.75
2023-05-23T05:25:11.786Z,7.18
2023-05-23T05:27:39.854Z,6.93
2023-05-23T05:30:08.901Z,7.65
2023-05-23T05:32:35.416Z,7.38
2023-05-23T05:35:03.257Z,7.15
2023-05-23T05:37:29.890Z,6.53
2023-05-23T05:39:56.849Z,7.97
2023-05-23T05:42:23.296Z,7.25
2023-05-23T05:44:50.322Z,7.88
2023-05-23T05:47:16.853Z,8.35
2023-05-23T05:49:43.278Z,7.93
2023-05-23T05:52:09.758Z,7.43
2023-05-23T05:54:36.304Z,8.75
2023-05-23T05:57:02.789Z,5.97
2023-05-23T05:59:31.117Z,7.28
2023-05-23T06:01:59.117Z,6.95
2023-05-23T06:04:25.962Z,7.93
2023-05-23T06:06:52.577Z,7.22
2023-05-23T06:09:19.047Z,7.30
2023-05-23T06:11:45.528Z,7.55
2023-05-23T06:14:12.016Z,6.50
2023-05-23T06:16:38.975Z,6.55
2023-05-23T06:19:06.155Z,7.93
2023-05-23T06:21:32.784Z,7.40
2023-05-23T06:23:59.292Z,7.80
2023-05-23T06:26:26.244Z,7.22
2023-05-23T06:28:52.743Z,6.63
2023-05-23T06:31:19.295Z,6.80
2023-05-23T06:33:45.837Z,6.82
2023-05-23T06:36:12.314Z,6.00
2023-05-23T06:38:38.810Z,5.63
2023-05-23T06:41:07.243Z,5.63
2023-05-23T06:43:33.911Z,5.43
2023-05-23T06:46:00.526Z,5.30
2023-05-23T06:48:27.093Z,6.40
2023-05-23T06:50:53.659Z,5.35
2023-05-23T06:53:20.287Z,5.13
2023-05-23T06:55:47.031Z,5.47
2023-05-23T06:58:13.589Z,5.22
2023-05-23T07:00:40.394Z,5.68
2023-05-23T07:03:07.310Z,5.10
2023-05-23T07:05:34.475Z,5.35
2023-05-23T07:08:01.070Z,5.97
2023-05-23T07:10:27.649Z,5.30
2023-05-23T07:12:54.194Z,4.97
2023-05-23T07:15:20.832Z,5.07
2023-05-23T07:17:47.388Z,5.85
2023-05-23T07:20:14.022Z,4.82
2023-05-23T07:22:40.479Z,5.47
2023-05-23T07:25:07.734Z,5.90
2023-05-23T07:27:35.055Z,6.85
2023-05-23T07:30:01.713Z,6.30
2023-05-23T07:32:28.188Z,6.78
2023-05-23T07:34:54.858Z,5.28
2023-05-23T07:37:21.346Z,7.32
2023-05-23T07:39:49.037Z,7.30
2023-05-23T07:42:15.603Z,7.70
2023-05-23T07:44:42.447Z,7.53
2023-05-23T07:47:08.983Z,8.98
2023-05-23T07:49:35.824Z,9.32
2023-05-23T07:52:02.486Z,8.73
2023-05-23T07:54:28.991Z,8.82
2023-05-23T07:56:55.794Z,7.68
2023-05-23T07:59:22.726Z,8.27
2023-05-23T08:01:50.680Z,7.97
2023-05-23T08:04:18.221Z,11.80
2023-05-23T08:07:00.970Z,10.50
2023-05-23T08:09:31.903Z,9.55
2023-05-23T08:11:58.444Z,9.05
2023-05-23T08:14:31.753Z,7.45
2023-05-23T08:17:05.187Z,7.57
2023-05-23T08:19:31.838Z,8.68
2023-05-23T08:21:58.345Z,8.48
2023-05-23T08:24:24.882Z,8.68
2023-05-23T08:26:51.422Z,8.35
2023-05-23T08:29:18.600Z,7.65
2023-05-23T08:31:45.271Z,8.20
2023-05-23T08:34:11.931Z,8.43
2023-05-23T08:36:39.765Z,7.20
2023-05-23T08:39:06.361Z,8.07
2023-05-23T08:41:34.671Z,8.00
2023-05-23T08:44:01.567Z,7.07
2023-05-23T08:46:28.236Z,6.70
2023-05-23T08:48:55.873Z,6.05
2023-05-23T08:51:25.051Z,7.93
2023-05-23T08:53:53.637Z,8.10
2023-05-23T08:56:20.720Z,8.20
2023-05-23T08:58:47.937Z,7.68
2023-05-23T09:01:15.568Z,6.55
2023-05-23T09:03:42.519Z,7.68
2023-05-23T09:06:10.830Z,6.22
2023-05-23T09:08:37.815Z,7.45
2023-05-23T09:11:06.842Z,6.68
2023-05-23T09:13:34.397Z,7.28
2023-05-23T09:16:06.241Z,6.45
2023-05-23T09:18:42.710Z,6.63
2023-05-23T09:21:10.716Z,5.53
2023-05-23T09:23:40.218Z,5.30
2023-05-23T09:26:09.503Z,5.45
2023-05-23T09:28:37.804Z,5.53
2023-05-23T09:31:07.190Z,5.25
2023-05-23T09:33:49.343Z,5.50
2023-05-23T09:36:17.260Z,6.13
2023-05-23T09:38:46.235Z,6.00
2023-05-23T09:41:13.291Z,6.20
2023-05-23T09:43:42.634Z,5.70
2023-05-23T09:46:11.144Z,5.75
2023-05-23T09:48:38.272Z,4.72
2023-05-23T09:51:10.309Z,5.80
2023-05-23T09:53:37.359Z,5.55
2023-05-23T09:56:04.358Z,5.10
2023-05-23T09:58:32.963Z,5.85
2023-05-23T10:01:03.778Z,5.55
2023-05-23T10:03:35.672Z,5.10
2023-05-23T10:06:10.664Z,4.65
2023-05-23T10:08:42.287Z,4.78
2023-05-23T10:11:14.718Z,5.10
2023-05-23T10:13:44.765Z,4.88
2023-05-23T10:16:16.615Z,4.88
2023-05-23T10:18:53.099Z,4.45
2023-05-23T10:21:28.385Z,4.07
2023-05-23T10:23:55.725Z,4.82
2023-05-23T10:26:22.759Z,4.88
2023-05-23T10:28:49.983Z,4.45
2023-05-23T10:31:17.861Z,4.70
2023-05-23T10:33:53.013Z,4.22
2023-05-23T10:36:25.918Z,4.32
2023-05-23T10:39:02.246Z,4.85
2023-05-23T10:41:38.436Z,4.25
2023-05-23T10:44:16.816Z,5.43
2023-05-23T10:47:02.284Z,4.15
2023-05-23T10:49:42.465Z,3.20
2023-05-23T10:52:11.770Z,4.80
2023-05-23T10:54:48.731Z,4.78
2023-05-23T10:57:25.673Z,4.70
2023-05-23T10:59:52.431Z,4.40
2023-05-23T11:02:29.395Z,4.60
2023-05-23T11:05:18.631Z,4.60
2023-05-23T11:07:45.151Z,4.70
2023-05-23T11:10:14.100Z,4.55
2023-05-23T11:12:42.574Z,4.72
2023-05-23T11:15:18.133Z,4.47
2023-05-23T11:17:52.232Z,4.65
2023-05-23T11:20:24.463Z,4.30
2023-05-23T11:23:09.171Z,4.13
2023-05-23T11:25:48.812Z,4.53
2023-05-23T11:28:16.197Z,4.88
2023-05-23T11:30:43.105Z,4.53
2023-05-23T11:33:14.907Z,4.80
2023-05-23T11:35:42.005Z,4.35
2023-05-23T11:38:09.349Z,4.68
2023-05-23T11:40:37.398Z,5.28
2023-05-23T11:43:06.152Z,5.38
2023-05-23T11:45:34.073Z,4.60
2023-05-23T11:48:11.889Z,3.90
2023-05-23T11:50:51.873Z,3.72
2023-05-23T11:53:25.259Z,3.30
2023-05-23T11:55:57.791Z,2.90
2023-05-23T11:58:33.203Z,3.17
2023-05-23T12:01:07.464Z,2.88
2023-05-23T12:03:35.219Z,3.30
2023-05-23T12:06:02.283Z,2.90
2023-05-23T12:08:28.781Z,2.75
2023-05-23T12:10:59.984Z,2.72
2023-05-23T12:13:29.607Z,2.75
2023-05-23T12:16:01.146Z,2.92
2023-05-23T12:18:29.206Z,2.80
2023-05-23T12:20:59.435Z,2.78
2023-05-23T12:25:54.702Z,2.85
2023-05-23T12:28:22.048Z,2.88
2023-05-23T12:30:49.466Z,2.90
2023-05-23T12:33:18.685Z,2.88
2023-05-23T12:35:45.489Z,2.53
2023-05-23T12:38:16.405Z,3.10
2023-05-23T12:40:43.624Z,2.83
2023-05-23T12:43:11.177Z,2.92
2023-05-23T12:45:37.692Z,3.08
2023-05-23T12:48:05.364Z,3.20
2023-05-23T12:50:31.895Z,3.10
2023-05-23T12:52:58.942Z,2.80
2023-05-23T12:55:25.763Z,2.92
2023-05-23T12:57:52.256Z,2.75
2023-05-23T13:00:19.620Z,3.05
2023-05-23T13:02:46.614Z,2.92
2023-05-23T13:05:13.273Z,2.67
2023-05-23T13:07:39.748Z,3.10
2023-05-23T13:10:06.965Z,3.28
2023-05-23T13:12:34.362Z,3.33
2023-05-23T13:15:01.082Z,2.90
2023-05-23T13:17:28.429Z,2.47
2023-05-23T13:19:54.920Z,3.13
2023-05-23T13:22:21.438Z,3.00
2023-05-23T13:24:47.953Z,3.08
2023-05-23T13:27:14.465Z,3.47
2023-05-23T13:29:40.965Z,3.00
2023-05-23T13:32:08.106Z,2.97
2023-05-23T13:34:37.285Z,3.10
2023-05-23T13:37:04.409Z,3.22
2023-05-23T13:39:30.918Z,3.13
2023-05-23T13:41:57.445Z,3.22
2023-05-23T13:44:24.008Z,3.20
2023-05-23T13:46:50.611Z,3.17
2023-05-23T13:49:17.125Z,2.60
2023-05-23T13:51:44.310Z,3.22
2023-05-23T13:54:10.875Z,3.35
2023-05-23T13:56:39.780Z,3.17
2023-05-23T13:59:06.276Z,2.72
2023-05-23T14:01:32.809Z,2.88
2023-05-23T14:03:59.372Z,2.80
2023-05-23T14:06:25.835Z,3.10
2023-05-23T14:08:52.371Z,2.60
2023-05-23T14:11:18.894Z,3.03
2023-05-23T14:13:45.375Z,2.88
2023-05-23T14:16:11.956Z,3.00
2023-05-23T14:18:38.566Z,2.70
2023-05-23T14:21:05.042Z,3.05
2023-05-23T14:23:31.956Z,2.63
2023-05-23T14:25:58.521Z,3.05
2023-05-23T14:28:25.064Z,2.90
2023-05-23T14:30:51.551Z,3.10
2023-05-23T14:33:18.607Z,2.75
2023-05-23T14:35:45.426Z,2.45
2023-05-23T14:38:12.049Z,2.90
2023-05-23T14:40:38.599Z,3.20
2023-05-23T14:43:05.242Z,2.85
2023-05-23T14:45:32.114Z,2.90
2023-05-23T14:47:58.931Z,2.60
2023-05-23T14:50:26.812Z,2.83
2023-05-23T14:52:53.544Z,2.80
2023-05-23T14:55:20.158Z,2.80
2023-05-23T14:57:46.647Z,2.67
2023-05-23T15:00:13.645Z,2.50
2023-05-23T15:02:40.196Z,2.67
2023-05-23T15:05:07.715Z,1.90
2023-05-23T15:07:34.201Z,2.72
2023-05-23T15:10:01.981Z,2.97
2023-05-23T15:12:28.861Z,2.92
2023-05-23T15:15:03.081Z,2.47
2023-05-23T15:17:31.159Z,3.08
2023-05-23T15:19:57.761Z,3.10
2023-05-23T15:22:37.949Z,2.60
2023-05-23T15:25:07.295Z,2.65
2023-05-23T15:27:33.768Z,3.10
2023-05-23T15:30:00.281Z,2.70
2023-05-23T15:32:26.863Z,2.47
2023-05-23T15:34:53.611Z,2.42
2023-05-23T15:37:20.148Z,2.78
2023-05-23T15:39:47.149Z,2.33
2023-05-23T15:42:13.706Z,2.65
2023-05-23T15:44:40.256Z,2.30
2023-05-23T15:47:06.885Z,2.70
2023-05-23T15:49:34.949Z,2.88
2023-05-23T15:52:01.441Z,2.17
2023-05-23T15:54:27.950Z,2.20
2023-05-23T15:56:54.760Z,2.50
2023-05-23T15:59:21.288Z,2.63
2023-05-23T16:01:47.786Z,2.38
2023-05-23T16:04:14.566Z,2.20
2023-05-23T16:06:41.142Z,2.55
2023-05-23T16:09:07.666Z,2.45
2023-05-23T16:11:34.220Z,1.90
2023-05-23T16:14:00.770Z,2.35
2023-05-23T16:16:27.334Z,2.35
2023-05-23T16:18:53.948Z,2.97
2023-05-23T16:21:20.940Z,2.35
2023-05-23T16:23:50.907Z,1.88
2023-05-23T16:26:18.756Z,2.40
2023-05-23T16:28:45.485Z,2.50
2023-05-23T16:31:16.647Z,2.40
2023-05-23T16:33:44.578Z,2.70
2023-05-23T16:36:11.118Z,2.47
2023-05-23T16:38:37.567Z,2.63
2023-05-23T16:41:04.171Z,3.00
2023-05-23T16:43:30.659Z,2.60
2023-05-23T16:45:57.265Z,2.53
2023-05-23T16:48:23.821Z,3.03
2023-05-23T16:50:50.445Z,2.55
2023-05-23T16:53:16.962Z,2.63
2023-05-23T16:55:46.057Z,2.70
2023-05-23T16:58:12.744Z,2.22
2023-05-23T17:00:39.624Z,2.50
2023-05-23T17:03:06.316Z,2.10
2023-05-23T17:05:33.470Z,3.25
2023-05-23T17:08:01.420Z,2.67
2023-05-23T17:10:28.027Z,2.92
2023-05-23T17:12:54.483Z,2.35
2023-05-23T17:15:20.964Z,2.80
2023-05-23T17:17:47.761Z,3.45
2023-05-23T17:20:14.346Z,2.53
2023-05-23T17:22:41.781Z,2.17
2023-05-23T17:25:08.855Z,2.40
2023-05-23T17:27:35.357Z,2.00
2023-05-23T17:30:05.017Z,2.63
2023-05-23T17:32:31.756Z,2.35
2023-05-23T17:34:58.534Z,2.35
2023-05-23T17:37:26.401Z,2.40
2023-05-23T17:39:55.981Z,2.30
2023-05-23T17:42:23.954Z,2.67
2023-05-23T17:44:50.513Z,2.88
2023-05-23T17:47:18.475Z,2.42
2023-05-23T17:49:44.971Z,2.50
2023-05-23T17:52:14.767Z,2.53
2023-05-23T17:54:42.215Z,3.00
2023-05-23T17:57:08.758Z,2.65
2023-05-23T17:59:35.777Z,2.50
2023-05-23T18:02:04.591Z,2.50
2023-05-23T18:04:31.134Z,2.58
2023-05-23T18:06:57.713Z,2.53
2023-05-23T18:09:24.382Z,2.58
2023-05-23T18:11:51.246Z,2.60
2023-05-23T18:14:17.772Z,3.05
2023-05-23T18:16:44.244Z,2.70
2023-05-23T18:19:10.861Z,2.40
2023-05-23T18:21:37.950Z,2.38
2023-05-23T18:24:04.727Z,1.90
2023-05-23T18:26:31.483Z,2.28
2023-05-23T18:28:59.558Z,2.28
2023-05-23T18:31:26.044Z,2.60
2023-05-23T18:33:52.622Z,2.53
2023-05-23T18:36:19.358Z,2.20
2023-05-23T18:38:45.997Z,2.25
2023-05-23T18:41:14.733Z,2.50
2023-05-23T18:43:41.670Z,2.75
2023-05-23T18:46:08.244Z,2.25
2023-05-23T18:48:35.886Z,2.90
2023-05-23T18:51:02.619Z,2.50
2023-05-23T18:53:29.171Z,2.15
2023-05-23T18:55:55.668Z,3.00
2023-05-23T18:58:22.244Z,2.42
2023-05-23T19:00:49.069Z,1.95
2023-05-23T19:03:16.799Z,2.13
2023-05-23T19:05:43.566Z,1.63
2023-05-23T19:08:10.055Z,2.42
2023-05-23T19:10:36.750Z,2.22
2023-05-23T19:13:03.833Z,2.30
2023-05-23T19:15:30.475Z,2.30
2023-05-23T19:17:57.003Z,2.22
2023-05-23T19:20:23.540Z,2.47
2023-05-23T19:22:52.252Z,2.40
2023-05-23T19:25:20.337Z,2.10
2023-05-23T19:27:46.873Z,2.17
2023-05-23T19:30:13.467Z,1.92
2023-05-23T19:32:40.101Z,2.35
2023-05-23T19:35:06.935Z,2.55
2023-05-23T19:37:33.447Z,2.30
2023-05-23T19:40:00.752Z,2.20
2023-05-23T19:42:27.485Z,2.17
2023-05-23T19:44:53.947Z,2.15
2023-05-23T19:47:20.557Z,2.13
2023-05-23T19:49:47.153Z,1.98
2023-05-23T19:52:14.266Z,2.30
2023-05-23T19:54:41.026Z,2.15
2023-05-23T19:57:07.733Z,2.00
2023-05-23T19:59:34.285Z,2.33
2023-05-23T20:02:00.788Z,1.67
2023-05-23T20:04:28.459Z,1.92
2023-05-23T20:06:55.966Z,2.20
2023-05-23T20:09:23.128Z,2.20
2023-05-23T20:11:49.660Z,2.90
2023-05-23T20:14:16.165Z,2.80
2023-05-23T20:16:42.788Z,2.53
2023-05-23T20:19:10.002Z,1.83
2023-05-23T20:21:36.634Z,1.88
2023-05-23T20:24:03.395Z,2.53
2023-05-23T20:26:29.860Z,2.10
2023-05-23T20:28:56.420Z,2.22
2023-05-23T20:31:22.974Z,2.03
2023-05-23T20:33:49.843Z,2.25
2023-05-23T20:36:19.603Z,2.50
2023-05-23T20:38:46.740Z,2.40
2023-05-23T20:41:14.267Z,2.65
2023-05-23T20:43:40.867Z,1.95
2023-05-23T20:46:09.165Z,1.63
2023-05-23T20:48:35.872Z,1.73
2023-05-23T20:51:02.722Z,2.13
2023-05-23T20:53:29.977Z,2.33
2023-05-23T20:55:56.461Z,2.10
2023-05-23T20:58:23.213Z,1.98
2023-05-23T21:00:50.839Z,2.30
2023-05-23T21:03:18.082Z,2.25
2023-05-23T21:05:45.206Z,2.28
2023-05-23T21:08:11.754Z,2.10
2023-05-23T21:10:38.192Z,1.92
2023-05-23T21:13:04.702Z,2.25
2023-05-23T21:15:31.261Z,1.73
2023-05-23T21:17:57.779Z,1.73
2023-05-23T21:20:24.399Z,1.67
2023-05-23T21:22:51.144Z,2.33
2023-05-23T21:25:17.900Z,2.55
2023-05-23T21:27:44.392Z,1.88
2023-05-23T21:30:11.469Z,2.25
2023-05-23T21:32:38.134Z,2.00
2023-05-23T21:35:05.060Z,2.10
2023-05-23T21:37:31.533Z,2.50
2023-05-23T21:39:58.028Z,2.80
2023-05-23T21:42:25.533Z,1.80
2023-05-23T21:44:52.047Z,2.05
2023-05-23T21:47:20.039Z,1.70
2023-05-23T21:49:46.586Z,1.92
2023-05-23T21:52:13.111Z,1.95
2023-05-23T21:54:39.626Z,2.15
2023-05-23T21:57:06.149Z,2.40
2023-05-23T21:59:32.752Z,2.00
2023-05-23T22:02:00.267Z,1.77
2023-05-23T22:04:26.888Z,1.77
2023-05-23T22:06:53.543Z,2.35
2023-05-23T22:09:20.040Z,1.90
2023-05-23T22:11:46.509Z,1.73
2023-05-23T22:14:13.004Z,2.10
2023-05-23T22:16:39.740Z,2.00
2023-05-23T22:19:08.085Z,1.75
2023-05-23T22:21:34.902Z,2.40
2023-05-23T22:24:01.472Z,1.92
2023-05-23T22:26:28.232Z,2.22
2023-05-23T22:28:55.297Z,1.88
2023-05-23T22:31:22.137Z,2.30
2023-05-23T22:33:48.800Z,1.73
2023-05-23T22:36:15.662Z,2.00
2023-05-23T22:38:42.231Z,2.03
2023-05-23T22:41:08.691Z,1.75
2023-05-23T22:43:35.338Z,1.33
2023-05-23T22:46:01.879Z,1.60
2023-05-23T22:48:28.564Z,2.53
2023-05-23T22:50:55.112Z,2.35
2023-05-23T22:53:22.749Z,1.42
2023-05-23T22:55:49.873Z,1.65
2023-05-23T22:58:16.447Z,1.17
2023-05-23T23:00:43.669Z,1.55
2023-05-23T23:03:10.965Z,1.55
2023-05-23T23:05:37.628Z,1.55
2023-05-23T23:08:04.262Z,1.50
2023-05-23T23:10:30.745Z,1.20
2023-05-23T23:12:57.225Z,2.10
2023-05-23T23:15:24.805Z,1.80
2023-05-23T23:17:51.473Z,1.60
2023-05-23T23:20:19.435Z,1.90
2023-05-23T23:22:47.072Z,1.50
2023-05-23T23:25:14.199Z,1.73
2023-05-23T23:27:40.844Z,1.38
2023-05-23T23:30:08.135Z,1.50
2023-05-23T23:32:34.683Z,1.20
2023-05-23T23:35:01.359Z,1.40
2023-05-23T23:37:27.862Z,1.55
2023-05-23T23:39:54.335Z,1.70
2023-05-23T23:42:21.001Z,1.27
2023-05-23T23:44:47.474Z,1.33
2023-05-23T23:47:14.193Z,1.30
2023-05-23T23:49:41.767Z,1.65
2023-05-23T23:52:08.900Z,1.55
2023-05-23T23:54:35.484Z,1.60
2023-05-23T23:57:01.985Z,1.30
2023-05-23T23:59:31.359Z,1.15
